Kona, Kentucky
Current Conditions -  °F | °C
As of 2:55 PM on Thursday 18 Dec 2014 (Local Time) from KLNP Reporting Station
Overcast Overcast  
Wind Chill: 35°   Ceiling: 5000
Heat Index: 39°   Visibility: 10mi
Dew Point: 25°   Wind: 6mph
Humidity: 56%   Direction: 350°N
Pressure: 30.09"   Gusts: NA
Location:  37.1283°N, 82.8498°W
Report Text: KLNP 181955Z AUTO 35005KT 10SM OVC050 04/M04 A3009 RMK AO2
Loading
Personal Weather Stations






























Interactive Weather Map New forecast layout! Learn more

10-Day Weather Forecast

Advertisements
Track Severe Weather on mobile